createdAt,value
2023-02-06T00:01:43.729Z,95.19
2023-02-06T00:04:11.949Z,95.47
2023-02-06T00:06:40.283Z,95.34
2023-02-06T00:09:08.771Z,95.05
2023-02-06T00:11:37.235Z,95.54
2023-02-06T00:14:07.171Z,95.54
2023-02-06T00:16:37.026Z,95.37
2023-02-06T00:19:06.078Z,95.55
2023-02-06T00:21:34.686Z,96.05
2023-02-06T00:24:03.684Z,96.66
2023-02-06T00:26:32.970Z,96.33
2023-02-06T00:29:01.179Z,95.79
2023-02-06T00:31:31.059Z,96.07
2023-02-06T00:33:59.468Z,96.81
2023-02-06T00:36:28.163Z,95.64
2023-02-06T00:38:56.330Z,96.92
2023-02-06T00:41:24.558Z,96.09
2023-02-06T00:43:52.648Z,96.69
2023-02-06T00:46:20.703Z,96.66
2023-02-06T00:48:50.625Z,96.49
2023-02-06T00:51:19.132Z,96.20
2023-02-06T00:53:49.026Z,96.54
2023-02-06T00:56:18.649Z,96.16
2023-02-06T00:58:46.900Z,96.34
2023-02-06T01:01:15.301Z,95.78
2023-02-06T01:03:43.871Z,96.24
2023-02-06T01:06:13.153Z,96.06
2023-02-06T01:08:41.125Z,96.29
2023-02-06T01:11:14.173Z,96.24
2023-02-06T01:13:43.262Z,96.48
2023-02-06T01:16:15.201Z,95.82
2023-02-06T01:18:43.988Z,95.35
2023-02-06T01:21:15.536Z,95.50
2023-02-06T01:23:44.218Z,95.64
2023-02-06T01:26:14.876Z,95.69
2023-02-06T01:28:44.762Z,95.47
2023-02-06T01:31:13.179Z,95.00
2023-02-06T01:33:41.469Z,95.54
2023-02-06T01:36:10.740Z,95.79
2023-02-06T01:38:40.576Z,95.76
2023-02-06T01:41:10.454Z,95.81
2023-02-06T01:43:41.128Z,95.54
2023-02-06T01:46:10.093Z,95.45
2023-02-06T01:48:42.709Z,95.63
2023-02-06T01:51:15.297Z,95.49
2023-02-06T01:53:48.041Z,96.04
2023-02-06T01:56:19.747Z,95.63
2023-02-06T01:58:51.755Z,96.50
2023-02-06T02:01:21.556Z,95.90
2023-02-06T02:03:53.457Z,96.26
2023-02-06T02:06:25.464Z,96.34
2023-02-06T02:08:58.332Z,95.88
2023-02-06T02:11:31.468Z,95.92
2023-02-06T02:13:59.850Z,96.04
2023-02-06T02:16:39.982Z,96.39
2023-02-06T02:19:32.570Z,96.15
2023-02-06T02:22:36.130Z,96.32
2023-02-06T02:25:46.922Z,96.42
2023-02-06T02:28:59.144Z,96.20
2023-02-06T02:31:56.664Z,96.60
2023-02-06T02:35:13.331Z,95.97
2023-02-06T02:37:53.088Z,96.62
2023-02-06T02:40:29.518Z,96.20
2023-02-06T02:43:06.025Z,96.71
2023-02-06T02:45:41.128Z,96.64
2023-02-06T02:48:14.873Z,96.33
2023-02-06T02:50:45.222Z,97.20
2023-02-06T02:53:15.323Z,96.90
2023-02-06T02:55:43.603Z,96.42
2023-02-06T02:58:17.078Z,96.75
2023-02-06T03:00:49.934Z,97.32
2023-02-06T03:03:22.980Z,97.16
2023-02-06T03:06:19.810Z,96.57
2023-02-06T03:08:54.771Z,97.57
2023-02-06T03:11:23.512Z,96.63
2023-02-06T03:13:57.230Z,97.14
2023-02-06T03:16:29.505Z,96.90
2023-02-06T03:19:04.507Z,96.72
2023-02-06T03:21:37.972Z,97.73
2023-02-06T03:24:11.808Z,96.61
2023-02-06T03:26:43.403Z,97.52
2023-02-06T03:29:14.119Z,96.96
2023-02-06T03:31:49.805Z,96.97
2023-02-06T03:34:24.032Z,97.33
2023-02-06T03:36:54.619Z,97.49
2023-02-06T03:39:24.848Z,96.90
2023-02-06T03:41:54.908Z,96.20
2023-02-06T03:44:26.488Z,97.13
2023-02-06T03:46:56.918Z,95.86
2023-02-06T03:49:28.896Z,95.27
2023-02-06T03:52:03.062Z,95.76
2023-02-06T03:54:33.510Z,95.38
2023-02-06T03:57:04.368Z,94.84
2023-02-06T03:59:32.722Z,95.81
2023-02-06T04:02:04.557Z,95.59
2023-02-06T04:04:36.812Z,95.71
2023-02-06T04:07:13.212Z,95.25
2023-02-06T04:09:41.438Z,95.09
2023-02-06T04:12:10.853Z,95.40
2023-02-06T04:14:38.944Z,95.10
2023-02-06T04:17:07.810Z,94.70
2023-02-06T04:19:37.032Z,94.57
2023-02-06T04:22:08.093Z,95.02
2023-02-06T04:24:37.213Z,94.42
2023-02-06T04:27:05.729Z,94.40
2023-02-06T04:29:33.964Z,94.37
2023-02-06T04:32:03.476Z,94.75
2023-02-06T04:34:31.995Z,93.75
2023-02-06T04:37:00.954Z,93.73
2023-02-06T04:39:31.687Z,93.53
2023-02-06T04:41:59.788Z,94.70
2023-02-06T04:44:28.181Z,94.64
2023-02-06T04:46:56.422Z,94.06
2023-02-06T04:49:24.411Z,95.10
2023-02-06T04:51:52.770Z,94.24
2023-02-06T04:54:20.850Z,94.29
2023-02-06T04:56:50.796Z,94.31
2023-02-06T04:59:18.826Z,93.99
2023-02-06T05:01:47.203Z,93.97
2023-02-06T05:04:15.918Z,94.24
2023-02-06T05:06:43.893Z,94.60
2023-02-06T05:09:12.115Z,94.28
2023-02-06T05:11:40.401Z,94.29
2023-02-06T05:14:09.707Z,94.71
2023-02-06T05:16:37.984Z,94.36
2023-02-06T05:19:05.950Z,94.29
2023-02-06T05:21:34.262Z,94.96
2023-02-06T05:24:02.952Z,95.10
2023-02-06T05:26:30.996Z,94.72
2023-02-06T05:28:59.324Z,94.84
2023-02-06T05:31:29.105Z,95.29
2023-02-06T05:33:57.796Z,94.35
2023-02-06T05:36:26.082Z,94.48
2023-02-06T05:38:53.964Z,94.36
2023-02-06T05:41:22.403Z,94.05
2023-02-06T05:43:50.644Z,94.03
2023-02-06T05:46:19.725Z,93.92
2023-02-06T05:48:49.119Z,93.13
2023-02-06T05:51:17.301Z,94.16
2023-02-06T05:53:45.878Z,92.46
2023-02-06T05:56:13.885Z,93.12
2023-02-06T05:58:42.314Z,92.67
2023-02-06T06:01:12.018Z,92.75
2023-02-06T06:03:40.261Z,93.27
2023-02-06T06:06:10.307Z,93.05
2023-02-06T06:08:38.503Z,91.85
2023-02-06T06:11:07.622Z,91.71
2023-02-06T06:13:36.609Z,92.42
2023-02-06T06:16:05.115Z,91.91
2023-02-06T06:18:33.964Z,93.04
2023-02-06T06:21:01.977Z,93.57
2023-02-06T06:23:31.671Z,93.20
2023-02-06T06:26:00.014Z,92.60
2023-02-06T06:28:28.099Z,92.73
2023-02-06T06:31:02.324Z,92.41
2023-02-06T06:33:31.257Z,93.34
2023-02-06T06:35:59.964Z,91.98
2023-02-06T06:38:28.557Z,92.21
2023-02-06T06:40:58.410Z,90.59
2023-02-06T06:43:26.873Z,90.93
2023-02-06T06:45:55.646Z,91.43
2023-02-06T06:48:24.140Z,91.26
2023-02-06T06:50:52.898Z,89.71
2023-02-06T06:53:21.280Z,90.37
2023-02-06T06:55:49.528Z,89.69
2023-02-06T06:58:18.888Z,89.52
2023-02-06T07:00:47.670Z,89.74
2023-02-06T07:03:15.686Z,88.95
2023-02-06T07:05:43.638Z,89.32
2023-02-06T07:08:12.504Z,89.14
2023-02-06T07:10:41.023Z,89.15
2023-02-06T07:13:09.338Z,88.14
2023-02-06T07:15:38.795Z,87.61
2023-02-06T07:18:06.942Z,87.76
2023-02-06T07:20:38.159Z,87.43
2023-02-06T07:23:06.400Z,87.80
2023-02-06T07:25:34.996Z,88.17
2023-02-06T07:28:03.426Z,85.39
2023-02-06T07:30:31.885Z,86.09
2023-02-06T07:33:01.721Z,85.51
2023-02-06T07:35:29.730Z,85.02
2023-02-06T07:37:58.540Z,84.92
2023-02-06T07:40:33.751Z,85.50
2023-02-06T07:43:11.713Z,86.35
2023-02-06T07:45:40.130Z,85.64
2023-02-06T07:48:10.323Z,85.10
2023-02-06T07:50:39.472Z,85.61
2023-02-06T07:53:07.953Z,85.20
2023-02-06T07:55:38.388Z,86.79
2023-02-06T07:58:06.648Z,85.24
2023-02-06T08:00:34.966Z,85.86
2023-02-06T08:03:03.343Z,86.42
2023-02-06T08:05:36.212Z,85.13
2023-02-06T08:08:04.328Z,85.10
2023-02-06T08:10:32.381Z,85.07
2023-02-06T08:13:01.006Z,84.10
2023-02-06T08:15:29.178Z,84.51
2023-02-06T08:17:57.287Z,85.56
2023-02-06T08:20:26.081Z,83.46
2023-02-06T08:22:56.199Z,83.73
2023-02-06T08:25:25.704Z,83.67
2023-02-06T08:27:54.981Z,84.28
2023-02-06T08:30:23.624Z,84.21
2023-02-06T08:32:51.646Z,85.41
2023-02-06T08:35:20.344Z,85.17
2023-02-06T08:37:48.443Z,85.64
2023-02-06T08:40:17.851Z,84.11
2023-02-06T08:42:50.872Z,84.07
2023-02-06T08:45:19.025Z,83.56
2023-02-06T08:47:47.344Z,84.03
2023-02-06T08:50:15.790Z,83.39
2023-02-06T08:52:43.702Z,83.07
2023-02-06T08:55:11.731Z,82.65
2023-02-06T08:57:41.125Z,82.85
2023-02-06T09:00:10.464Z,83.09
2023-02-06T09:02:38.365Z,84.19
2023-02-06T09:05:07.232Z,84.34
2023-02-06T09:07:35.318Z,84.77
2023-02-06T09:10:03.575Z,83.65
2023-02-06T09:12:32.025Z,83.80
2023-02-06T09:15:01.420Z,85.42
2023-02-06T09:17:31.585Z,85.47
2023-02-06T09:20:00.388Z,85.79
2023-02-06T09:22:29.289Z,86.48
2023-02-06T09:24:57.273Z,87.32
2023-02-06T09:27:25.767Z,86.77
2023-02-06T09:29:53.689Z,87.49
2023-02-06T09:32:23.607Z,86.51
2023-02-06T09:34:52.174Z,85.42
2023-02-06T09:37:21.729Z,86.23
2023-02-06T09:39:49.675Z,85.56
2023-02-06T09:42:24.343Z,86.06
2023-02-06T09:44:57.513Z,84.36
2023-02-06T09:47:30.856Z,85.08
2023-02-06T09:50:05.631Z,85.22
2023-02-06T09:52:51.096Z,83.75
2023-02-06T09:55:27.017Z,85.05
2023-02-06T09:58:03.895Z,85.15
2023-02-06T10:00:41.608Z,84.00
2023-02-06T10:03:24.122Z,84.19
2023-02-06T10:06:02.547Z,84.59
2023-02-06T10:08:36.864Z,84.73
2023-02-06T10:11:10.796Z,85.08
2023-02-06T10:13:45.217Z,85.18
2023-02-06T10:16:32.763Z,84.84
2023-02-06T10:19:06.453Z,84.03
2023-02-06T10:21:38.921Z,84.40
2023-02-06T10:24:16.088Z,84.41
2023-02-06T10:26:44.026Z,85.25
2023-02-06T10:29:19.952Z,83.96
2023-02-06T10:31:59.308Z,83.72
2023-02-06T10:34:46.378Z,83.10
2023-02-06T10:37:32.132Z,81.99
2023-02-06T10:40:14.199Z,83.22
2023-02-06T10:42:51.729Z,83.29
2023-02-06T10:45:34.223Z,82.85
2023-02-06T10:48:06.905Z,82.81
2023-02-06T10:50:41.135Z,83.55
2023-02-06T10:53:17.235Z,83.40
2023-02-06T10:55:51.432Z,83.12
2023-02-06T10:58:24.424Z,82.75
2023-02-06T11:00:54.014Z,83.41
2023-02-06T11:03:26.378Z,83.15
2023-02-06T11:05:57.156Z,82.47
2023-02-06T11:08:30.096Z,81.63
2023-02-06T11:10:59.015Z,79.78
2023-02-06T11:13:29.175Z,79.68
2023-02-06T11:16:03.964Z,81.52
2023-02-06T11:18:35.582Z,78.41
2023-02-06T11:21:05.837Z,76.75
2023-02-06T11:23:35.330Z,76.48
2023-02-06T11:26:11.100Z,75.70
2023-02-06T11:28:42.126Z,76.52
2023-02-06T11:31:13.649Z,76.04
2023-02-06T11:33:49.222Z,76.70
2023-02-06T11:36:31.006Z,76.52
2023-02-06T11:39:00.795Z,76.44
2023-02-06T11:41:29.857Z,76.64
2023-02-06T11:44:03.083Z,76.12
2023-02-06T11:46:32.879Z,77.33
2023-02-06T11:49:08.422Z,77.38
2023-02-06T11:51:59.925Z,77.36
2023-02-06T11:54:31.316Z,76.92
2023-02-06T11:57:07.970Z,76.34
2023-02-06T11:59:38.541Z,76.19
2023-02-06T12:02:26.537Z,76.42
2023-02-06T12:05:03.179Z,75.87
2023-02-06T12:07:37.273Z,75.20
2023-02-06T12:10:15.343Z,75.78
2023-02-06T12:12:47.248Z,74.77
2023-02-06T12:15:43.708Z,73.54
2023-02-06T12:18:13.872Z,70.45
2023-02-06T12:20:49.999Z,70.70
2023-02-06T12:23:25.847Z,71.55
2023-02-06T12:25:58.589Z,70.75
2023-02-06T12:28:30.208Z,71.34
2023-02-06T12:31:05.282Z,70.09
2023-02-06T12:33:39.247Z,70.62
2023-02-06T12:36:16.394Z,72.20
2023-02-06T12:38:51.535Z,72.10
2023-02-06T12:41:41.873Z,71.31
2023-02-06T12:44:21.289Z,72.02
2023-02-06T12:46:56.681Z,73.29
2023-02-06T12:49:28.773Z,70.93
2023-02-06T12:52:03.098Z,70.19
2023-02-06T12:54:39.653Z,70.26
2023-02-06T12:57:16.205Z,70.76
2023-02-06T13:00:05.356Z,70.97
2023-02-06T13:02:57.490Z,71.63
2023-02-06T13:05:39.109Z,70.97
2023-02-06T13:08:12.596Z,71.66
2023-02-06T13:10:42.576Z,73.69
2023-02-06T13:13:28.748Z,72.89
2023-02-06T13:16:07.522Z,71.68
2023-02-06T13:18:54.587Z,72.77
2023-02-06T13:21:28.600Z,70.51
2023-02-06T13:24:17.150Z,70.48
2023-02-06T13:27:24.174Z,71.59
2023-02-06T13:29:54.368Z,72.18
2023-02-06T13:32:53.466Z,70.78
2023-02-06T13:35:25.521Z,70.63
2023-02-06T13:38:12.955Z,70.14
2023-02-06T13:40:41.752Z,69.98
2023-02-06T13:43:18.691Z,69.41
2023-02-06T13:45:51.911Z,69.96
2023-02-06T13:48:51.711Z,69.75
2023-02-06T13:51:45.686Z,70.32
2023-02-06T13:54:50.696Z,69.98
2023-02-06T13:57:40.907Z,70.22
2023-02-06T14:00:16.576Z,69.70
2023-02-06T14:02:48.890Z,70.48
2023-02-06T14:05:20.647Z,71.96
2023-02-06T14:08:01.605Z,68.47
2023-02-06T14:10:53.101Z,70.53
2023-02-06T14:13:35.714Z,69.72
2023-02-06T14:16:18.740Z,70.75
2023-02-06T14:18:54.672Z,69.32
2023-02-06T14:21:35.416Z,69.43
2023-02-06T14:24:16.961Z,70.08
2023-02-06T14:26:54.088Z,70.46
2023-02-06T14:29:35.650Z,71.92
2023-02-06T14:32:36.909Z,70.74
2023-02-06T14:35:23.517Z,69.87
2023-02-06T14:38:08.198Z,69.92
2023-02-06T14:40:43.141Z,71.33
2023-02-06T14:43:18.725Z,71.83
2023-02-06T14:46:05.516Z,71.64
2023-02-06T14:48:41.420Z,71.94
2023-02-06T14:51:19.435Z,72.50
2023-02-06T14:53:53.758Z,71.73
2023-02-06T14:56:27.592Z,72.94
2023-02-06T14:58:56.036Z,73.22
2023-02-06T15:01:32.672Z,72.94
2023-02-06T15:04:12.739Z,73.78
2023-02-06T15:06:43.606Z,74.60
2023-02-06T15:09:24.934Z,73.21
2023-02-06T15:11:54.345Z,73.66
2023-02-06T15:14:25.047Z,73.27
2023-02-06T15:16:53.523Z,73.81
2023-02-06T15:19:26.591Z,75.22
2023-02-06T15:22:00.259Z,74.34
2023-02-06T15:24:50.658Z,74.75
2023-02-06T15:27:27.624Z,75.00
2023-02-06T15:29:56.973Z,74.10
2023-02-06T15:32:30.469Z,74.88
2023-02-06T15:35:01.045Z,74.56
2023-02-06T15:37:30.969Z,75.52
2023-02-06T15:40:07.841Z,74.78
2023-02-06T15:42:37.041Z,74.86
2023-02-06T15:45:05.843Z,74.53
2023-02-06T15:47:38.481Z,74.78
2023-02-06T15:50:16.959Z,73.37
2023-02-06T15:52:48.075Z,74.01
2023-02-06T15:55:28.722Z,73.01
2023-02-06T15:57:58.731Z,73.22
2023-02-06T16:00:29.652Z,72.47
2023-02-06T16:03:03.480Z,74.07
2023-02-06T16:05:35.769Z,73.87
2023-02-06T16:08:05.894Z,74.74
2023-02-06T16:10:39.097Z,74.05
2023-02-06T16:13:12.616Z,73.11
2023-02-06T16:15:41.975Z,72.74
2023-02-06T16:18:27.349Z,73.26
2023-02-06T16:21:13.063Z,70.51
2023-02-06T16:23:48.855Z,71.63
2023-02-06T16:26:19.047Z,72.24
2023-02-06T16:29:00.897Z,72.46
2023-02-06T16:31:30.984Z,72.99
2023-02-06T16:34:03.603Z,74.54
2023-02-06T16:36:34.498Z,74.33
2023-02-06T16:39:04.834Z,74.01
2023-02-06T16:41:35.161Z,74.35
2023-02-06T16:44:05.084Z,74.06
2023-02-06T16:46:33.103Z,74.01
2023-02-06T16:49:01.249Z,73.14
2023-02-06T16:51:33.103Z,73.74
2023-02-06T16:54:01.493Z,74.91
2023-02-06T16:56:29.726Z,74.41
2023-02-06T16:58:58.323Z,74.18
2023-02-06T17:01:29.674Z,73.07
2023-02-06T17:03:59.409Z,73.59
2023-02-06T17:06:30.997Z,75.68
2023-02-06T17:09:09.117Z,75.48
2023-02-06T17:11:40.054Z,76.05
2023-02-06T17:14:08.373Z,75.81
2023-02-06T17:16:41.887Z,75.80
2023-02-06T17:19:12.498Z,74.59
2023-02-06T17:21:40.806Z,75.54
2023-02-06T17:24:10.333Z,75.90
2023-02-06T17:26:38.590Z,76.67
2023-02-06T17:29:06.926Z,76.47
2023-02-06T17:31:34.955Z,77.40
2023-02-06T17:34:03.031Z,77.02
2023-02-06T17:36:33.073Z,76.37
2023-02-06T17:39:01.545Z,77.09
2023-02-06T17:41:31.364Z,75.79
2023-02-06T17:43:59.593Z,76.14
2023-02-06T17:46:27.622Z,76.57
2023-02-06T17:48:55.502Z,75.60
2023-02-06T17:51:23.754Z,74.41
2023-02-06T17:53:51.942Z,74.32
2023-02-06T17:56:20.914Z,74.30
2023-02-06T17:58:50.636Z,74.12
2023-02-06T18:01:21.578Z,74.02
2023-02-06T18:03:50.814Z,73.81
2023-02-06T18:06:19.720Z,74.49
2023-02-06T18:08:48.797Z,72.87
2023-02-06T18:11:18.734Z,73.39
2023-02-06T18:13:48.915Z,74.02
2023-02-06T18:16:20.566Z,73.79
2023-02-06T18:18:49.594Z,74.00
2023-02-06T18:21:20.678Z,75.02
2023-02-06T18:23:49.619Z,74.48
2023-02-06T18:26:18.399Z,73.70
2023-02-06T18:28:46.984Z,73.86
2023-02-06T18:31:25.685Z,75.03
2023-02-06T18:33:54.976Z,75.42
2023-02-06T18:36:24.419Z,75.66
2023-02-06T18:38:52.734Z,76.45
2023-02-06T18:41:38.491Z,75.71
2023-02-06T18:44:08.356Z,76.54
2023-02-06T18:46:38.489Z,76.31
2023-02-06T18:49:07.187Z,77.17
2023-02-06T18:51:35.334Z,78.40
2023-02-06T18:54:03.719Z,78.44
2023-02-06T18:56:32.423Z,78.65
2023-02-06T18:59:01.443Z,78.82
2023-02-06T19:01:30.107Z,78.83
2023-02-06T19:04:04.059Z,78.99
2023-02-06T19:06:35.635Z,78.34
2023-02-06T19:09:07.400Z,78.83
2023-02-06T19:11:35.734Z,79.40
2023-02-06T19:14:04.621Z,80.63
2023-02-06T19:16:33.378Z,80.26
2023-02-06T19:19:07.653Z,80.30
2023-02-06T19:21:36.468Z,80.86
2023-02-06T19:24:04.822Z,80.54
2023-02-06T19:26:33.874Z,81.76
2023-02-06T19:29:02.418Z,81.28
2023-02-06T19:31:31.972Z,81.58
2023-02-06T19:34:03.776Z,82.38
2023-02-06T19:36:32.093Z,83.17
2023-02-06T19:39:01.790Z,83.72
2023-02-06T19:41:32.901Z,83.59
2023-02-06T19:44:06.582Z,84.95
2023-02-06T19:46:35.820Z,84.07
2023-02-06T19:49:08.571Z,85.22
2023-02-06T19:51:45.444Z,84.99
2023-02-06T19:54:16.496Z,84.58
2023-02-06T19:56:47.036Z,85.75
2023-02-06T19:59:20.571Z,85.06
2023-02-06T20:01:51.614Z,85.20
2023-02-06T20:04:22.620Z,85.21
2023-02-06T20:06:52.205Z,85.47
2023-02-06T20:09:22.080Z,85.71
2023-02-06T20:11:53.547Z,85.41
2023-02-06T20:14:25.728Z,86.29
2023-02-06T20:16:59.034Z,86.39
2023-02-06T20:19:29.800Z,86.38
2023-02-06T20:22:00.683Z,85.22
2023-02-06T20:24:31.287Z,84.75
2023-02-06T20:27:03.549Z,85.06
2023-02-06T20:29:35.258Z,86.02
2023-02-06T20:32:05.107Z,85.57
2023-02-06T20:34:35.295Z,85.80
2023-02-06T20:37:04.107Z,84.56
2023-02-06T20:39:32.390Z,85.09
2023-02-06T20:42:00.819Z,85.40
2023-02-06T20:44:28.832Z,85.40
2023-02-06T20:46:57.519Z,85.30
2023-02-06T20:49:28.720Z,84.47
2023-02-06T20:51:59.177Z,84.91
2023-02-06T20:54:28.679Z,85.79
2023-02-06T20:57:00.466Z,85.14
2023-02-06T20:59:31.284Z,85.08
2023-02-06T21:01:59.791Z,85.61
2023-02-06T21:04:28.281Z,85.41
2023-02-06T21:06:56.822Z,84.73
2023-02-06T21:09:26.746Z,85.70
2023-02-06T21:11:55.341Z,85.76
2023-02-06T21:14:23.860Z,86.10
2023-02-06T21:16:52.333Z,85.32
2023-02-06T21:19:21.360Z,84.71
2023-02-06T21:21:50.158Z,85.22
2023-02-06T21:24:19.665Z,85.02
2023-02-06T21:26:49.146Z,85.00
2023-02-06T21:29:17.091Z,84.56
2023-02-06T21:31:46.279Z,85.66
2023-02-06T21:34:17.209Z,84.20
2023-02-06T21:36:45.319Z,84.61
2023-02-06T21:39:17.355Z,83.96
2023-02-06T21:41:46.974Z,83.59
2023-02-06T21:44:17.020Z,83.12
2023-02-06T21:46:44.955Z,84.08
2023-02-06T21:49:13.669Z,84.72
2023-02-06T21:51:42.461Z,84.73
2023-02-06T21:54:10.770Z,84.69
2023-02-06T21:56:40.461Z,84.78
2023-02-06T21:59:10.564Z,84.66
2023-02-06T22:01:41.549Z,84.16
2023-02-06T22:04:12.042Z,83.99
2023-02-06T22:06:40.383Z,84.11
2023-02-06T22:09:10.377Z,85.01
2023-02-06T22:11:39.910Z,84.17
2023-02-06T22:14:12.623Z,83.83
2023-02-06T22:16:42.521Z,83.34
2023-02-06T22:19:12.272Z,83.85
2023-02-06T22:21:40.885Z,84.07
2023-02-06T22:24:10.456Z,84.65
2023-02-06T22:26:39.935Z,84.48
2023-02-06T22:29:09.988Z,84.17
2023-02-06T22:31:38.588Z,83.24
2023-02-06T22:34:12.194Z,83.62
2023-02-06T22:36:40.518Z,83.87
2023-02-06T22:39:13.048Z,84.40
2023-02-06T22:41:42.418Z,82.52
2023-02-06T22:44:12.887Z,83.10
2023-02-06T22:46:41.203Z,82.53
2023-02-06T22:49:11.558Z,82.54
2023-02-06T22:51:41.050Z,83.39
2023-02-06T22:54:10.732Z,82.54
2023-02-06T22:56:41.536Z,82.96
2023-02-06T22:59:12.763Z,79.78
2023-02-06T23:01:42.714Z,74.77
2023-02-06T23:04:15.063Z,74.73
2023-02-06T23:06:44.689Z,75.49
2023-02-06T23:09:15.071Z,73.99
2023-02-06T23:11:43.857Z,74.02
2023-02-06T23:14:13.975Z,74.77
2023-02-06T23:16:42.358Z,75.18
2023-02-06T23:19:12.184Z,74.30
2023-02-06T23:21:44.002Z,75.62
2023-02-06T23:24:12.818Z,74.85
2023-02-06T23:26:44.306Z,76.72
2023-02-06T23:29:15.742Z,76.76
2023-02-06T23:31:44.738Z,75.96
2023-02-06T23:34:14.251Z,74.03
2023-02-06T23:36:43.935Z,74.55
2023-02-06T23:39:12.583Z,74.39
2023-02-06T23:41:41.273Z,75.84
2023-02-06T23:44:10.328Z,75.90
2023-02-06T23:46:40.228Z,76.17
2023-02-06T23:49:08.943Z,77.85
2023-02-06T23:51:38.362Z,78.22
2023-02-06T23:54:09.099Z,78.79
2023-02-06T23:56:38.165Z,78.01
2023-02-06T23:59:07.868Z,77.54
